Time;durP1;ratioP1;P1;durP2;ratioP2;P2;SDS_P1;SDS_P2;PMS_P1;PMS_P2;Temp;Humidity;BMP_temperature;BMP_pressure;BME280_temperature;BME280_humidity;BME280_pressure;Samples;Min_cycle;Max_cycle;Signal;HPM_P1;HPM_P2
2022/06/03 00:00:21;;;;;;;1.63;1.52;;;;;;;;;;4965456;28;20110;-84
2022/06/03 00:03:02;;;;;;;1.67;1.42;;;;;;;;;;4964236;28;20079;-84
2022/06/03 00:05:28;;;;;;;;;;;;;;;;;;4970579;28;20110;-83
2022/06/03 00:08:00;;;;;;;2.55;1.80;;;;;;;;;;4972590;28;19952;-82
2022/06/03 00:10:32;;;;;;;4.47;1.77;;;;;;;;;;4972270;28;20202;-86
2022/06/03 00:13:02;;;;;;;1.80;1.70;;;;;;;;;;4961049;29;20168;-83
2022/06/03 00:15:46;;;;;;;1.73;1.63;;;;;;;;;;4960766;29;20035;-85
2022/06/03 00:18:18;;;;;;;2.58;1.70;;;;;;;;;;4961148;29;20032;-83
2022/06/03 00:20:50;;;;;;;2.05;1.45;;;;;;;;;;4957307;28;20038;-85
2022/06/03 00:23:37;;;;;;;1.42;1.33;;;;;;;;;;4960171;29;20047;-85
2022/06/03 00:26:09;;;;;;;1.83;1.70;;;;;;;;;;4960477;29;20030;-84
2022/06/03 00:28:41;;;;;;;1.85;1.63;;;;;;;;;;4958043;29;20027;-82
2022/06/03 00:31:26;;;;;;;3.20;1.92;;;;;;;;;;4957285;29;20122;-84
2022/06/03 00:34:07;;;;;;;2.28;1.48;;;;;;;;;;4959265;28;20478;-85
2022/06/03 00:36:49;;;;;;;2.33;1.70;;;;;;;;;;4975490;23;20293;-87
2022/06/03 00:39:24;;;;;;;1.92;1.48;;;;;;;;;;4967471;28;20154;-87
2022/06/03 00:41:50;;;;;;;3.67;1.80;;;;;;;;;;4976747;28;20031;-88
2022/06/03 00:44:16;;;;;;;2.45;1.30;;;;;;;;;;4975395;28;20081;-87
2022/06/03 00:47:00;;;;;;;2.10;1.52;;;;;;;;;;4975218;28;20047;-86
2022/06/03 00:49:45;;;;;;;3.28;1.88;;;;;;;;;;4977257;28;20407;-88
2022/06/03 00:52:11;;;;;;;1.92;1.70;;;;;;;;;;4972766;28;20426;-88
2022/06/03 00:54:56;;;;;;;2.08;1.73;;;;;;;;;;4956696;29;20063;-87
2022/06/03 00:57:33;;;;;;;3.60;1.73;;;;;;;;;;4959108;28;20426;-88
2022/06/03 00:59:59;;;;;;;2.13;1.92;;;;;;;;;;4976594;28;20505;-85
2022/06/03 01:02:45;;;;;;;2.50;1.90;;;;;;;;;;4976662;28;20113;-88
2022/06/03 01:05:19;;;;;;;2.03;1.80;;;;;;;;;;4996034;28;20038;-88
2022/06/03 01:07:54;;;;;;;2.33;1.77;;;;;;;;;;4975269;28;20029;-87
2022/06/03 01:10:46;;;;;;;2.10;1.77;;;;;;;;;;4974505;28;20030;-87
2022/06/03 01:13:31;;;;;;;4.00;1.92;;;;;;;;;;4970428;28;20039;-86
2022/06/03 01:16:19;;;;;;;3.05;2.08;;;;;;;;;;4976016;28;20038;-86
2022/06/03 01:18:54;;;;;;;2.05;1.80;;;;;;;;;;4962533;28;20493;-85
2022/06/03 01:21:29;;;;;;;1.98;1.80;;;;;;;;;;4974177;28;20027;-86
2022/06/03 01:23:58;;;;;;;2.75;1.85;;;;;;;;;;4975990;28;20155;-86
2022/06/03 01:26:26;;;;;;;2.15;1.90;;;;;;;;;;4975946;28;20049;-86
2022/06/03 01:29:08;;;;;;;3.58;1.80;;;;;;;;;;4974495;28;20113;-86
2022/06/03 01:31:34;;;;;;;1.83;1.73;;;;;;;;;;4975856;28;20026;-85
2022/06/03 01:34:00;;;;;;;2.20;1.90;;;;;;;;;;4975790;28;20023;-84
2022/06/03 01:36:27;;;;;;;5.90;1.70;;;;;;;;;;4974165;28;20688;-86
2022/06/03 01:38:53;;;;;;;3.10;2.35;;;;;;;;;;4975789;28;20027;-87
2022/06/03 01:41:28;;;;;;;2.45;1.73;;;;;;;;;;4975770;28;20030;-87
2022/06/03 01:44:09;;;;;;;3.15;1.85;;;;;;;;;;4969515;28;20055;-89
2022/06/03 01:46:46;;;;;;;4.35;2.10;;;;;;;;;;4984150;28;20033;-87
2022/06/03 01:49:22;;;;;;;2.33;2.10;;;;;;;;;;4956572;28;20028;-88
2022/06/03 01:52:00;;;;;;;1.98;1.80;;;;;;;;;;4956079;28;20031;-88
2022/06/03 01:54:26;;;;;;;2.03;1.83;;;;;;;;;;4975503;28;20050;-87
2022/06/03 01:56:52;;;;;;;2.42;2.17;;;;;;;;;;4975177;28;20043;-88
2022/06/03 01:59:33;;;;;;;7.38;2.20;;;;;;;;;;4973783;28;20425;-87
2022/06/03 02:02:14;;;;;;;4.35;2.28;;;;;;;;;;4971973;28;20099;-86
2022/06/03 02:04:59;;;;;;;2.97;1.90;;;;;;;;;;4975357;28;20063;-87
2022/06/03 02:07:44;;;;;;;5.63;2.20;;;;;;;;;;4973493;28;20033;-87
2022/06/03 02:10:25;;;;;;;4.65;2.22;;;;;;;;;;4973248;28;20015;-87
2022/06/03 02:12:51;;;;;;;;;;;;;;;;;;4975833;28;20030;-87
2022/06/03 02:15:35;;;;;;;4.18;2.05;;;;;;;;;;4975099;28;20305;-87
2022/06/03 02:18:20;;;;;;;2.92;2.60;;;;;;;;;;4972893;28;20035;-87
2022/06/03 02:20:46;;;;;;;3.50;2.00;;;;;;;;;;4962711;28;20041;-88
2022/06/03 02:23:20;;;;;;;2.20;1.80;;;;;;;;;;4973727;28;20117;-88
2022/06/03 02:25:52;;;;;;;7.93;2.50;;;;;;;;;;4974706;28;20023;-88
2022/06/03 02:28:40;;;;;;;3.03;2.20;;;;;;;;;;4974707;28;20054;-88
2022/06/03 02:31:07;;;;;;;2.95;2.03;;;;;;;;;;4973167;28;20122;-89
2022/06/03 02:33:54;;;;;;;4.25;2.08;;;;;;;;;;4973536;28;20034;-88
2022/06/03 02:36:39;;;;;;;2.33;2.13;;;;;;;;;;4960049;28;20042;-89
2022/06/03 02:39:27;;;;;;;8.32;2.25;;;;;;;;;;4955440;28;20024;-87
2022/06/03 02:42:14;;;;;;;4.05;1.98;;;;;;;;;;4969284;28;20501;-87
2022/06/03 02:44:42;;;;;;;2.42;2.05;;;;;;;;;;4925036;29;20067;-87
2022/06/03 02:47:27;;;;;;;3.35;2.10;;;;;;;;;;4955035;28;20110;-87
2022/06/03 02:50:02;;;;;;;3.00;2.00;;;;;;;;;;4955051;28;20028;-87
2022/06/03 02:52:29;;;;;;;2.60;2.17;;;;;;;;;;4955005;28;20137;-87
2022/06/03 02:55:10;;;;;;;3.75;2.42;;;;;;;;;;4955031;28;20062;-87
2022/06/03 02:57:55;;;;;;;2.05;1.80;;;;;;;;;;4955064;28;20506;-87
2022/06/03 03:00:21;;;;;;;2.47;2.28;;;;;;;;;;4956271;28;20035;-85
2022/06/03 03:03:06;;;;;;;2.85;2.17;;;;;;;;;;4973605;28;20041;-85
2022/06/03 03:05:38;;;;;;;2.63;2.42;;;;;;;;;;4994204;28;20030;-91
2022/06/03 03:08:04;;;;;;;3.28;2.33;;;;;;;;;;4997598;28;20086;-91
2022/06/03 03:10:30;;;;;;;3.85;2.35;;;;;;;;;;4992167;28;20698;-87
2022/06/03 03:13:10;;;;;;;6.85;2.55;;;;;;;;;;4974144;28;20031;-87
2022/06/03 03:15:55;;;;;;;3.20;2.40;;;;;;;;;;4967351;28;20034;-87
2022/06/03 03:18:30;;;;;;;2.95;2.17;;;;;;;;;;4953549;28;20106;-87
2022/06/03 03:21:08;;;;;;;3.13;2.47;;;;;;;;;;4972118;28;20027;-87
2022/06/03 03:23:49;;;;;;;6.45;2.33;;;;;;;;;;4974273;28;20030;-87
2022/06/03 03:26:32;;;;;;;2.08;1.88;;;;;;;;;;4958656;28;20041;-89
2022/06/03 03:29:07;;;;;;;6.43;2.50;;;;;;;;;;4953991;29;20070;-88
2022/06/03 03:31:34;;;;;;;2.80;2.30;;;;;;;;;;4967915;28;20035;-89
2022/06/03 03:34:03;;;;;;;2.75;2.30;;;;;;;;;;4954925;29;20027;-87
2022/06/03 03:36:29;;;;;;;4.22;2.33;;;;;;;;;;4962457;28;20035;-87
2022/06/03 03:39:14;;;;;;;2.42;2.15;;;;;;;;;;4954427;28;20023;-88
2022/06/03 03:41:40;;;;;;;4.03;2.05;;;;;;;;;;4954170;28;20072;-86
2022/06/03 03:44:17;;;;;;;4.15;1.95;;;;;;;;;;4952728;29;20024;-88
2022/06/03 03:46:43;;;;;;;5.00;2.35;;;;;;;;;;4952928;29;20051;-88
2022/06/03 03:49:18;;;;;;;2.50;2.20;;;;;;;;;;4953193;29;20054;-88
2022/06/03 03:51:57;;;;;;;5.20;2.20;;;;;;;;;;4953959;28;20094;-88
2022/06/03 03:54:41;;;;;;;2.40;1.95;;;;;;;;;;4954132;28;20031;-88
2022/06/03 03:57:22;;;;;;;4.22;1.90;;;;;;;;;;4954493;28;20035;-88
2022/06/03 03:59:48;;;;;;;2.00;1.90;;;;;;;;;;4953031;29;20349;-85
2022/06/03 04:02:17;;;;;;;7.20;2.38;;;;;;;;;;4953946;28;20051;-88
2022/06/03 04:04:53;;;;;;;3.78;2.47;;;;;;;;;;4952910;29;20027;-85
2022/06/03 04:07:38;;;;;;;2.28;1.88;;;;;;;;;;4953155;28;20023;-87
2022/06/03 04:10:16;;;;;;;2.33;2.13;;;;;;;;;;4953877;28;20027;-88
2022/06/03 04:13:09;;;;;;;2.42;2.05;;;;;;;;;;4966971;28;20032;-90
2022/06/03 04:15:41;;;;;;;2.05;1.88;;;;;;;;;;4963772;28;20393;-87
2022/06/03 04:18:10;;;;;;;4.13;2.20;;;;;;;;;;4953352;29;20043;-88
2022/06/03 04:20:51;;;;;;;2.38;2.00;;;;;;;;;;4970896;28;20543;-88
2022/06/03 04:23:17;;;;;;;;;;;;;;;;;;4972267;28;20444;-88
2022/06/03 04:26:06;;;;;;;4.68;2.10;;;;;;;;;;4971863;28;19906;-88
2022/06/03 04:28:51;;;;;;;2.63;2.10;;;;;;;;;;4973494;28;20023;-87
2022/06/03 04:31:35;;;;;;;5.60;1.90;;;;;;;;;;4972904;28;20027;-88
2022/06/03 04:34:01;;;;;;;2.42;1.70;;;;;;;;;;4972865;28;20023;-87
2022/06/03 04:36:48;;;;;;;2.60;1.90;;;;;;;;;;4972716;28;20027;-88
2022/06/03 04:39:32;;;;;;;2.03;1.77;;;;;;;;;;4971635;28;20023;-87
2022/06/03 04:42:01;;;;;;;3.42;1.77;;;;;;;;;;4972971;28;20035;-87
2022/06/03 04:44:46;;;;;;;2.50;2.20;;;;;;;;;;4976358;28;20093;-85
2022/06/03 04:47:27;;;;;;;5.72;2.05;;;;;;;;;;4976333;28;20061;-88
2022/06/03 04:49:53;;;;;;;6.45;2.10;;;;;;;;;;4976171;28;20050;-88
2022/06/03 04:52:19;;;;;;;2.50;2.00;;;;;;;;;;4975207;28;20127;-88
2022/06/03 04:55:03;;;;;;;2.90;2.00;;;;;;;;;;4975033;28;20066;-88
2022/06/03 04:57:29;;;;;;;3.67;2.10;;;;;;;;;;4976037;28;20027;-87
2022/06/03 05:00:06;;;;;;;2.35;2.08;;;;;;;;;;4976172;28;20027;-86
2022/06/03 05:02:35;;;;;;;3.20;2.17;;;;;;;;;;4976221;28;20076;-88
2022/06/03 05:05:20;;;;;;;2.60;2.15;;;;;;;;;;4976019;28;20031;-86
2022/06/03 05:07:57;;;;;;;2.55;2.35;;;;;;;;;;4974564;28;20027;-87
2022/06/03 05:10:50;;;;;;;2.45;1.90;;;;;;;;;;4974574;28;20068;-87
2022/06/03 05:13:35;;;;;;;4.30;1.80;;;;;;;;;;4974621;28;20023;-87
2022/06/03 05:16:13;;;;;;;2.85;2.03;;;;;;;;;;4975653;28;20125;-87
2022/06/03 05:18:44;;;;;;;2.80;1.95;;;;;;;;;;4975413;28;20489;-88
2022/06/03 05:21:10;;;;;;;4.00;2.33;;;;;;;;;;4963592;28;20034;-86
2022/06/03 05:23:58;;;;;;;10.15;1.90;;;;;;;;;;4973865;28;20031;-88
2022/06/03 05:26:24;;;;;;;2.20;1.77;;;;;;;;;;4975437;28;20098;-89
2022/06/03 05:28:56;;;;;;;2.65;2.00;;;;;;;;;;4975745;28;20104;-89
2022/06/03 05:31:41;;;;;;;2.20;1.80;;;;;;;;;;4975086;28;20026;-88
2022/06/03 05:34:19;;;;;;;4.55;2.03;;;;;;;;;;4971695;28;20041;-87
2022/06/03 05:37:10;;;;;;;1.70;1.60;;;;;;;;;;4973755;28;20121;-86
2022/06/03 05:39:59;;;;;;;2.67;1.90;;;;;;;;;;4955619;29;20027;-85
2022/06/03 05:42:44;;;;;;;2.30;1.80;;;;;;;;;;4949829;28;20039;-88
2022/06/03 05:45:16;;;;;;;2.60;1.55;;;;;;;;;;4974584;28;20048;-87
2022/06/03 05:47:50;;;;;;;3.10;1.83;;;;;;;;;;4975459;28;20027;-88
2022/06/03 05:50:19;;;;;;;2.10;1.63;;;;;;;;;;4974715;28;20027;-88
2022/06/03 05:52:45;;;;;;;1.88;1.50;;;;;;;;;;4972894;28;20019;-87
2022/06/03 05:55:16;;;;;;;4.75;1.95;;;;;;;;;;4973639;28;20094;-88
2022/06/03 05:57:54;;;;;;;3.27;1.97;;;;;;;;;;4974421;28;20043;-88
2022/06/03 06:00:38;;;;;;;1.20;1.10;;;;;;;;;;4973502;28;20448;-88
2022/06/03 06:03:21;;;;;;;1.90;1.67;;;;;;;;;;4973899;28;20027;-88
2022/06/03 06:06:05;;;;;;;2.08;1.70;;;;;;;;;;4973752;28;20019;-87
2022/06/03 06:08:58;;;;;;;3.00;1.48;;;;;;;;;;4973648;28;20081;-87
2022/06/03 06:11:24;;;;;;;2.15;1.20;;;;;;;;;;4944229;28;20030;-87
2022/06/03 06:13:50;;;;;;;2.25;1.42;;;;;;;;;;4973725;28;20035;-88
2022/06/03 06:16:51;;;;;;;2.53;1.23;;;;;;;;;;4957621;28;20051;-88
2022/06/03 06:19:17;;;;;;;;;;;;;;;;;;4915295;29;20032;-88
2022/06/03 06:21:43;;;;;;;14.68;3.85;;;;;;;;;;4957469;28;19917;-88
2022/06/03 06:24:12;;;;;;;7.65;1.60;;;;;;;;;;4973417;28;20027;-87
2022/06/03 06:26:57;;;;;;;13.80;2.42;;;;;;;;;;4974657;28;20105;-88
2022/06/03 06:29:41;;;;;;;13.07;2.28;;;;;;;;;;4974722;28;20029;-88
2022/06/03 06:32:26;;;;;;;3.53;1.40;;;;;;;;;;4973781;28;20027;-88
2022/06/03 06:35:25;;;;;;;1.48;1.17;;;;;;;;;;4973252;28;20026;-87
2022/06/03 06:38:04;;;;;;;4.82;1.58;;;;;;;;;;4931597;28;20047;-88
2022/06/03 06:40:44;;;;;;;2.75;1.50;;;;;;;;;;4974919;28;20105;-87
2022/06/03 06:43:31;;;;;;;1.48;1.35;;;;;;;;;;4991160;28;20027;-90
2022/06/03 06:46:06;;;;;;;2.65;1.52;;;;;;;;;;4973840;28;20211;-88
2022/06/03 06:48:52;;;;;;;3.78;1.85;;;;;;;;;;4974520;28;20027;-88
2022/06/03 06:51:33;;;;;;;5.90;1.40;;;;;;;;;;4955015;28;20039;-87
2022/06/03 06:54:06;;;;;;;3.33;1.80;;;;;;;;;;4956896;29;20019;-88
2022/06/03 06:56:41;;;;;;;2.50;1.60;;;;;;;;;;4956875;29;20042;-88
2022/06/03 06:59:08;;;;;;;7.72;1.60;;;;;;;;;;4954258;29;20501;-89
2022/06/03 07:01:43;;;;;;;2.58;1.23;;;;;;;;;;4953111;29;20024;-88
2022/06/03 07:04:12;;;;;;;1.80;1.70;;;;;;;;;;4969268;28;20036;-92
2022/06/03 07:06:47;;;;;;;3.58;1.40;;;;;;;;;;4957734;28;20469;-88
2022/06/03 07:09:48;;;;;;;5.70;1.58;;;;;;;;;;4953659;29;20019;-89
2022/06/03 07:12:14;;;;;;;;;;;;;;;;;;4914565;29;20032;-89
2022/06/03 07:14:45;;;;;;;2.38;1.40;;;;;;;;;;4941808;29;19913;-88
2022/06/03 07:20:12;;;;;;;4.28;1.40;;;;;;;;;;4967575;28;19913;-89
2022/06/03 07:22:38;;;;;;;1.48;1.38;;;;;;;;;;4970371;28;20022;-89
2022/06/03 07:25:17;;;;;;;3.58;1.77;;;;;;;;;;4953871;29;20051;-88
2022/06/03 07:27:43;;;;;;;2.35;1.35;;;;;;;;;;4958919;29;20034;-89
2022/06/03 07:30:20;;;;;;;1.98;1.50;;;;;;;;;;4983952;28;20030;-91
2022/06/03 07:32:48;;;;;;;4.40;1.50;;;;;;;;;;4976570;28;20034;-91
2022/06/03 07:35:32;;;;;;;1.40;1.30;;;;;;;;;;4972999;28;20027;-91
2022/06/03 07:37:58;;;;;;;3.42;2.03;;;;;;;;;;4972993;28;20062;-92
2022/06/03 07:40:28;;;;;;;3.05;1.73;;;;;;;;;;4973481;28;20477;-92
2022/06/03 07:42:54;;;;;;;2.28;1.50;;;;;;;;;;4973544;28;20026;-93
2022/06/03 07:45:29;;;;;;;2.53;1.63;;;;;;;;;;4973779;28;20024;-92
2022/06/03 07:47:58;;;;;;;3.75;1.70;;;;;;;;;;4968923;28;20059;-92
2022/06/03 07:50:26;;;;;;;2.95;1.60;;;;;;;;;;4952807;29;20067;-93
2022/06/03 07:52:55;;;;;;;1.55;1.40;;;;;;;;;;4952911;29;20565;-92
2022/06/03 07:55:23;;;;;;;3.47;1.65;;;;;;;;;;4952804;29;20035;-92
2022/06/03 07:57:56;;;;;;;4.90;2.30;;;;;;;;;;4953185;29;20031;-91
2022/06/03 08:00:22;;;;;;;4.40;1.90;;;;;;;;;;4952895;29;20074;-91
2022/06/03 08:03:09;;;;;;;2.85;1.90;;;;;;;;;;4954928;28;20110;-90
2022/06/03 08:05:35;;;;;;;3.55;1.75;;;;;;;;;;4955442;28;20405;-91
2022/06/03 08:10:58;;;;;;;2.80;1.90;;;;;;;;;;4962575;28;20101;-90
2022/06/03 08:13:25;;;;;;;3.80;1.77;;;;;;;;;;4975706;28;20041;-91
2022/06/03 08:15:53;;;;;;;3.20;1.88;;;;;;;;;;4996208;28;20075;-94
2022/06/03 08:18:19;;;;;;;3.30;1.73;;;;;;;;;;4999882;28;20053;-96
2022/06/03 08:20:47;;;;;;;3.80;1.65;;;;;;;;;;4999901;28;20030;-95
2022/06/03 08:23:15;;;;;;;4.20;2.00;;;;;;;;;;4981239;28;20037;-91
2022/06/03 08:25:42;;;;;;;5.20;2.17;;;;;;;;;;4980162;28;20034;-90
2022/06/03 08:28:12;;;;;;;2.58;1.63;;;;;;;;;;4979126;28;20023;-90
2022/06/03 08:30:39;;;;;;;3.22;2.08;;;;;;;;;;4977834;28;20488;-91
2022/06/03 08:33:07;;;;;;;2.13;1.92;;;;;;;;;;4979369;28;20033;-91
2022/06/03 08:38:29;;;;;;;3.60;2.03;;;;;;;;;;4978170;28;20045;-91
2022/06/03 08:41:05;;;;;;;2.97;1.80;;;;;;;;;;4978997;28;20033;-92
2022/06/03 08:43:37;;;;;;;3.13;1.80;;;;;;;;;;4978296;28;20461;-92
2022/06/03 08:46:14;;;;;;;5.88;2.08;;;;;;;;;;4978924;28;20114;-90
2022/06/03 08:48:42;;;;;;;4.95;2.35;;;;;;;;;;4977865;28;20019;-92
2022/06/03 08:51:13;;;;;;;4.22;2.13;;;;;;;;;;4979238;28;20030;-92
2022/06/03 08:53:42;;;;;;;2.03;1.65;;;;;;;;;;4977423;28;20026;-92
2022/06/03 09:10:14;;;;;;;4.75;2.50;;;;;;;;;;5546385;23;20082;-90
2022/06/03 09:13:03;;;;;;;3.10;2.10;;;;;;;;;;4983923;28;20027;-92
2022/06/03 09:15:45;;;;;;;5.13;2.30;;;;;;;;;;4989640;28;20023;-92
2022/06/03 09:18:31;;;;;;;2.35;1.85;;;;;;;;;;4971946;28;20023;-92
2022/06/03 09:21:03;;;;;;;4.20;2.30;;;;;;;;;;4978078;28;20105;-88
2022/06/03 09:23:33;;;;;;;2.95;2.10;;;;;;;;;;4961301;28;20074;-90
2022/06/03 09:28:53;;;;;;;3.22;2.20;;;;;;;;;;4970464;28;20023;-90
2022/06/03 09:31:20;;;;;;;4.18;1.75;;;;;;;;;;4961131;29;20078;-90
2022/06/03 09:34:07;;;;;;;;;;;;;;;;;;;;;
2022/06/03 09:40:22;;;;;;;;;;;;;;;;;;;;;
2022/06/03 11:01:29;;;;;;;5.32;2.20;;;;;;;;;;4986674;28;20096;-86
2022/06/03 11:03:56;;;;;;;4.53;2.40;;;;;;;;;;4989666;28;20467;-88
2022/06/03 11:06:23;;;;;;;6.40;2.00;;;;;;;;;;4993032;28;20120;-85
2022/06/03 11:08:51;;;;;;;3.13;1.80;;;;;;;;;;4992935;28;20030;-85
2022/06/03 11:11:36;;;;;;;4.15;2.38;;;;;;;;;;4992396;28;20479;-86
2022/06/03 11:14:21;;;;;;;2.50;2.10;;;;;;;;;;4992311;28;20388;-85
2022/06/03 11:16:51;;;;;;;2.17;1.98;;;;;;;;;;4992759;28;20045;-86
2022/06/03 11:19:20;;;;;;;4.65;2.40;;;;;;;;;;4993150;28;20361;-87
2022/06/03 11:21:47;;;;;;;2.63;1.85;;;;;;;;;;4992447;28;20030;-86
2022/06/03 11:24:13;;;;;;;2.92;1.90;;;;;;;;;;4992856;28;20117;-85
2022/06/03 11:26:42;;;;;;;4.03;1.85;;;;;;;;;;4992237;28;20065;-87
2022/06/03 11:29:12;;;;;;;1.95;1.75;;;;;;;;;;4992701;28;20026;-86
2022/06/03 11:31:41;;;;;;;4.10;2.25;;;;;;;;;;4993208;28;20619;-86
2022/06/03 11:34:31;;;;;;;4.38;2.20;;;;;;;;;;4992746;28;20022;-85
2022/06/03 11:36:59;;;;;;;2.00;1.80;;;;;;;;;;4992580;28;20435;-85
2022/06/03 11:39:38;;;;;;;2.47;2.22;;;;;;;;;;4991810;28;20026;-86
2022/06/03 11:42:04;;;;;;;2.40;1.98;;;;;;;;;;4992703;28;20026;-87
2022/06/03 11:44:34;;;;;;;7.70;2.30;;;;;;;;;;4992127;28;20018;-88
2022/06/03 11:47:04;;;;;;;3.58;2.35;;;;;;;;;;4991677;28;20022;-86
2022/06/03 11:49:31;;;;;;;3.10;2.03;;;;;;;;;;4993310;28;20038;-87
2022/06/03 11:51:57;;;;;;;4.25;2.15;;;;;;;;;;4994314;28;20038;-85
2022/06/03 11:54:24;;;;;;;7.68;2.22;;;;;;;;;;4995899;28;20049;-87
2022/06/03 11:56:50;;;;;;;3.05;2.25;;;;;;;;;;4995182;28;20026;-86
2022/06/03 11:59:30;;;;;;;6.50;2.60;;;;;;;;;;4995513;28;20392;-86
2022/06/03 12:02:08;;;;;;;4.63;2.17;;;;;;;;;;4996607;28;20026;-87
2022/06/03 12:04:40;;;;;;;4.82;2.30;;;;;;;;;;4995886;28;20053;-88
2022/06/03 12:07:22;;;;;;;5.13;2.50;;;;;;;;;;4995378;28;20027;-87
2022/06/03 12:10:10;;;;;;;4.13;2.45;;;;;;;;;;4994970;28;20038;-85
2022/06/03 12:15:32;;;;;;;6.28;2.33;;;;;;;;;;4995821;28;20584;-85
2022/06/03 12:18:09;;;;;;;4.43;2.40;;;;;;;;;;4996366;28;20026;-91
2022/06/03 12:20:37;;;;;;;6.15;2.42;;;;;;;;;;4995749;28;20109;-87
2022/06/03 12:23:12;;;;;;;4.32;2.58;;;;;;;;;;4997279;28;20026;-85
2022/06/03 12:25:41;;;;;;;3.70;2.88;;;;;;;;;;4979420;28;20033;-85
2022/06/03 12:28:25;;;;;;;5.53;2.55;;;;;;;;;;5005687;28;20034;-89
2022/06/03 12:30:56;;;;;;;4.40;2.83;;;;;;;;;;5010927;28;20040;-86
2022/06/03 12:33:25;;;;;;;5.82;2.72;;;;;;;;;;4999193;28;20026;-86
2022/06/03 12:35:52;;;;;;;3.50;2.53;;;;;;;;;;4986756;28;20026;-86
2022/06/03 12:38:24;;;;;;;2.58;2.38;;;;;;;;;;4977788;28;20030;-86
2022/06/03 12:40:54;;;;;;;2.75;2.53;;;;;;;;;;4980189;28;20158;-86
2022/06/03 12:43:24;;;;;;;4.25;3.15;;;;;;;;;;4979912;28;20035;-85
2022/06/03 12:46:01;;;;;;;3.60;2.95;;;;;;;;;;4978392;28;20031;-86
2022/06/03 12:48:37;;;;;;;4.75;2.30;;;;;;;;;;4979009;28;20527;-86
2022/06/03 12:51:12;;;;;;;3.55;3.10;;;;;;;;;;4978967;28;20424;-85
2022/06/03 12:53:41;;;;;;;4.35;2.70;;;;;;;;;;4981147;28;20093;-86
2022/06/03 12:56:09;;;;;;;6.30;2.90;;;;;;;;;;4984458;28;20074;-85
2022/06/03 12:58:45;;;;;;;2.75;2.55;;;;;;;;;;4998011;28;20026;-82
2022/06/03 13:01:12;;;;;;;3.97;2.92;;;;;;;;;;4995798;28;20086;-85
2022/06/03 13:03:39;;;;;;;5.97;3.08;;;;;;;;;;4995379;28;20065;-85
2022/06/03 13:06:08;;;;;;;5.90;3.00;;;;;;;;;;5001452;28;20057;-85
2022/06/03 13:09:34;;;;;;;3.30;2.90;;;;;;;;;;4999185;28;20447;-87
2022/06/03 13:11:20;;;;;;;7.82;3.10;;;;;;;;;;5001246;28;20053;-85
2022/06/03 13:14:10;;;;;;;7.30;3.55;;;;;;;;;;4999872;28;20512;-85
2022/06/03 13:16:36;;;;;;;3.88;3.08;;;;;;;;;;4985565;28;20476;-85
2022/06/03 13:19:21;;;;;;;4.13;3.25;;;;;;;;;;5000668;28;20014;-85
2022/06/03 13:22:02;;;;;;;5.47;3.38;;;;;;;;;;4998481;28;20023;-86
2022/06/03 13:24:28;;;;;;;;;;;;;;;;;;5000772;28;20699;-85
2022/06/03 13:27:13;;;;;;;5.72;3.25;;;;;;;;;;4987313;28;19961;-85
2022/06/03 13:29:45;;;;;;;3.35;3.05;;;;;;;;;;4997262;28;20023;-86
2022/06/03 13:32:15;;;;;;;5.32;3.25;;;;;;;;;;4997862;28;20031;-87
2022/06/03 13:34:42;;;;;;;6.93;3.78;;;;;;;;;;4997618;28;20373;-87
2022/06/03 13:37:17;;;;;;;5.82;3.67;;;;;;;;;;4998121;28;20109;-86
2022/06/03 13:39:43;;;;;;;11.40;3.40;;;;;;;;;;4996302;28;20018;-85
2022/06/03 13:45:01;;;;;;;3.90;3.60;;;;;;;;;;5000173;28;20044;-86
2022/06/03 13:47:46;;;;;;;5.88;4.30;;;;;;;;;;5018587;28;20038;-87
2022/06/03 13:50:18;;;;;;;6.65;4.90;;;;;;;;;;5017804;28;20034;-85
2022/06/03 13:52:47;;;;;;;7.22;4.53;;;;;;;;;;5018285;28;20452;-85
2022/06/03 13:55:16;;;;;;;11.13;5.07;;;;;;;;;;5016619;28;20022;-85
2022/06/03 13:57:42;;;;;;;6.93;5.25;;;;;;;;;;5007118;28;20026;-85
2022/06/03 14:00:18;;;;;;;6.65;5.15;;;;;;;;;;4994156;28;20048;-85
2022/06/03 14:02:45;;;;;;;9.00;5.53;;;;;;;;;;4994870;28;20117;-86
2022/06/03 14:05:15;;;;;;;10.02;5.97;;;;;;;;;;4993489;28;20102;-85
2022/06/03 14:07:53;;;;;;;9.65;5.78;;;;;;;;;;4993305;28;20037;-86
2022/06/03 14:10:21;;;;;;;9.55;6.15;;;;;;;;;;4993528;28;20084;-86
2022/06/03 14:12:52;;;;;;;7.55;5.70;;;;;;;;;;4993566;28;20831;-85
2022/06/03 14:15:22;;;;;;;8.25;6.25;;;;;;;;;;4992955;28;20045;-86
2022/06/03 14:17:57;;;;;;;10.00;5.78;;;;;;;;;;4991878;28;20440;-86
2022/06/03 14:20:30;;;;;;;8.02;5.28;;;;;;;;;;4981004;28;20121;-85
2022/06/03 14:23:21;;;;;;;5.90;5.15;;;;;;;;;;5016281;28;20026;-86
2022/06/03 14:25:52;;;;;;;8.82;5.63;;;;;;;;;;4993091;28;20568;-85
2022/06/03 14:28:36;;;;;;;6.20;5.15;;;;;;;;;;4976753;28;20030;-86
2022/06/03 14:31:13;;;;;;;7.43;5.80;;;;;;;;;;4976296;28;20477;-86
2022/06/03 14:33:41;;;;;;;7.95;5.50;;;;;;;;;;4978969;28;20041;-85
2022/06/03 14:36:08;;;;;;;10.93;5.85;;;;;;;;;;4998511;28;20153;-84
2022/06/03 14:38:34;;;;;;;10.35;5.70;;;;;;;;;;4993692;28;20045;-85
2022/06/03 14:41:00;;;;;;;8.75;5.78;;;;;;;;;;4993044;28;20455;-84
2022/06/03 14:43:27;;;;;;;7.50;5.57;;;;;;;;;;4993875;28;20452;-85
2022/06/03 14:45:57;;;;;;;6.85;5.35;;;;;;;;;;4994610;28;20018;-85
2022/06/03 14:48:26;;;;;;;7.22;5.53;;;;;;;;;;4994386;28;20030;-85
2022/06/03 14:50:55;;;;;;;9.43;5.97;;;;;;;;;;4997426;28;20117;-88
2022/06/03 14:53:21;;;;;;;6.72;5.40;;;;;;;;;;5013367;28;20022;-87
2022/06/03 14:55:52;;;;;;;6.90;5.43;;;;;;;;;;5000569;28;20085;-84
2022/06/03 14:58:21;;;;;;;7.70;5.43;;;;;;;;;;4994104;28;20113;-84
2022/06/03 15:01:05;;;;;;;6.28;5.03;;;;;;;;;;4994661;28;20054;-85
2022/06/03 15:03:37;;;;;;;7.82;5.25;;;;;;;;;;4994373;28;20018;-86
2022/06/03 15:06:17;;;;;;;6.97;5.43;;;;;;;;;;4994586;28;20041;-86
2022/06/03 15:08:46;;;;;;;6.20;4.85;;;;;;;;;;4994348;28;20580;-86
2022/06/03 15:11:12;;;;;;;8.27;4.80;;;;;;;;;;4994918;28;20034;-86
2022/06/03 15:13:39;;;;;;;12.82;6.07;;;;;;;;;;4995878;28;20113;-86
2022/06/03 15:16:06;;;;;;;6.10;5.50;;;;;;;;;;4993835;28;20026;-86
2022/06/03 15:18:33;;;;;;;10.50;5.15;;;;;;;;;;4986296;28;20070;-86
2022/06/03 15:21:09;;;;;;;6.82;5.70;;;;;;;;;;4991306;28;20030;-87
2022/06/03 15:23:36;;;;;;;12.07;5.70;;;;;;;;;;4976616;28;20026;-86
2022/06/03 15:26:02;;;;;;;8.05;4.72;;;;;;;;;;4976314;28;20041;-86
2022/06/03 15:28:28;;;;;;;12.00;6.20;;;;;;;;;;4988677;28;20023;-86
2022/06/03 15:31:01;;;;;;;10.07;5.95;;;;;;;;;;4992590;28;20099;-86
2022/06/03 15:33:28;;;;;;;8.38;5.88;;;;;;;;;;4988267;28;20505;-86
2022/06/03 15:35:58;;;;;;;9.40;5.38;;;;;;;;;;4974446;28;20023;-86
2022/06/03 15:38:24;;;;;;;8.23;5.97;;;;;;;;;;4992407;28;20488;-86
2022/06/03 15:40:59;;;;;;;6.90;5.65;;;;;;;;;;4994049;28;20023;-86
2022/06/03 15:43:26;;;;;;;6.80;5.18;;;;;;;;;;4978643;28;20038;-85
2022/06/03 15:45:52;;;;;;;7.22;5.05;;;;;;;;;;4973026;28;20512;-85
2022/06/03 15:48:26;;;;;;;6.38;5.47;;;;;;;;;;4973975;28;20421;-86
2022/06/03 15:51:01;;;;;;;9.05;5.68;;;;;;;;;;4972685;28;20031;-86
2022/06/03 15:53:35;;;;;;;5.43;4.90;;;;;;;;;;4979846;28;20027;-86
2022/06/03 15:56:01;;;;;;;7.65;5.70;;;;;;;;;;4990713;28;20019;-85
2022/06/03 15:58:27;;;;;;;6.07;5.45;;;;;;;;;;4991501;28;20580;-86
2022/06/03 16:01:08;;;;;;;8.30;5.03;;;;;;;;;;4986652;28;20488;-86
2022/06/03 16:03:53;;;;;;;7.13;5.43;;;;;;;;;;4980273;28;20035;-85
2022/06/03 16:06:30;;;;;;;7.57;5.55;;;;;;;;;;4984583;28;20030;-86
2022/06/03 16:09:08;;;;;;;5.80;5.20;;;;;;;;;;4991282;28;20034;-86
2022/06/03 16:11:50;;;;;;;8.27;5.22;;;;;;;;;;4984645;28;20041;-85
2022/06/03 16:14:35;;;;;;;10.38;6.30;;;;;;;;;;4985031;28;20038;-86
2022/06/03 16:17:08;;;;;;;8.45;6.65;;;;;;;;;;4973710;28;20019;-86
2022/06/03 16:19:40;;;;;;;10.18;7.45;;;;;;;;;;4982335;28;20121;-85
2022/06/03 16:22:27;;;;;;;6.60;5.80;;;;;;;;;;4972973;28;20035;-86
2022/06/03 16:25:03;;;;;;;9.18;5.70;;;;;;;;;;4972014;28;20031;-87
2022/06/03 16:27:32;;;;;;;6.88;6.18;;;;;;;;;;4973185;28;20396;-85
2022/06/03 16:30:03;;;;;;;9.23;6.05;;;;;;;;;;4984428;28;20022;-86
2022/06/03 16:32:33;;;;;;;6.22;5.45;;;;;;;;;;4989484;28;20543;-86
2022/06/03 16:35:02;;;;;;;8.25;6.45;;;;;;;;;;4991670;28;20042;-87
2022/06/03 16:37:35;;;;;;;8.57;5.78;;;;;;;;;;4992992;28;20019;-88
2022/06/03 16:40:06;;;;;;;8.73;5.88;;;;;;;;;;4979451;28;20026;-89
2022/06/03 16:42:51;;;;;;;7.22;5.47;;;;;;;;;;4996218;28;20388;-87
2022/06/03 16:48:24;;;;;;;7.10;5.03;;;;;;;;;;4996582;28;20045;-87
2022/06/03 16:50:50;;;;;;;8.32;6.20;;;;;;;;;;4994662;28;20034;-87
2022/06/03 16:53:17;;;;;;;9.45;5.63;;;;;;;;;;4995972;28;20030;-87
2022/06/03 16:55:46;;;;;;;7.20;5.60;;;;;;;;;;4983953;28;20034;-87
2022/06/03 16:58:17;;;;;;;7.90;5.07;;;;;;;;;;4975325;28;20518;-85
2022/06/03 17:00:52;;;;;;;9.30;4.35;;;;;;;;;;4975530;28;20038;-85
2022/06/03 17:03:26;;;;;;;7.68;4.88;;;;;;;;;;4982783;28;20050;-86
2022/06/03 17:05:53;;;;;;;8.32;5.28;;;;;;;;;;4994845;28;20053;-86
2022/06/03 17:08:38;;;;;;;8.30;4.68;;;;;;;;;;4994766;28;20026;-87
2022/06/03 17:11:10;;;;;;;4.95;4.28;;;;;;;;;;4994744;28;20050;-88
2022/06/03 17:13:36;;;;;;;11.02;5.07;;;;;;;;;;4994844;28;20031;-87
2022/06/03 17:16:02;;;;;;;9.05;4.03;;;;;;;;;;4994616;28;20018;-87
2022/06/03 17:18:29;;;;;;;5.35;4.22;;;;;;;;;;4995631;28;20544;-87
2022/06/03 17:21:01;;;;;;;4.40;3.80;;;;;;;;;;4994385;28;20057;-88
2022/06/03 17:23:44;;;;;;;4.47;3.70;;;;;;;;;;4995667;28;20495;-86